sensor_id;sensor_type;location;lat;lon;timestamp;temperature;humidity
31733;DHT22;18312;51.486;7.144;2023-05-10T00:01:44;13.20;99.90
31733;DHT22;18312;51.486;7.144;2023-05-10T00:04:12;13.10;99.90
31733;DHT22;18312;51.486;7.144;2023-05-10T00:06:39;13.10;99.90
31733;DHT22;18312;51.486;7.144;2023-05-10T00:09:05;13.10;99.90
31733;DHT22;18312;51.486;7.144;2023-05-10T00:11:32;13.20;99.90
31733;DHT22;18312;51.486;7.144;2023-05-10T00:13:59;13.20;99.90
31733;DHT22;18312;51.486;7.144;2023-05-10T00:16:25;13.10;99.90
31733;DHT22;18312;51.486;7.144;2023-05-10T00:18:52;13.20;99.90
31733;DHT22;18312;51.486;7.144;2023-05-10T00:21:20;15.10;99.90
31733;DHT22;18312;51.486;7.144;2023-05-10T00:23:46;14.90;99.90
31733;DHT22;18312;51.486;7.144;2023-05-10T00:26:13;15.00;99.90
31733;DHT22;18312;51.486;7.144;2023-05-10T00:28:40;15.00;99.90
31733;DHT22;18312;51.486;7.144;2023-05-10T00:31:06;15.00;99.90
31733;DHT22;18312;51.486;7.144;2023-05-10T00:33:33;15.00;99.90
31733;DHT22;18312;51.486;7.144;2023-05-10T00:35:59;15.00;99.90
31733;DHT22;18312;51.486;7.144;2023-05-10T00:38:27;15.00;99.90
31733;DHT22;18312;51.486;7.144;2023-05-10T00:40:54;15.00;99.90
31733;DHT22;18312;51.486;7.144;2023-05-10T00:43:20;15.00;99.90
31733;DHT22;18312;51.486;7.144;2023-05-10T00:45:47;15.00;99.90
31733;DHT22;18312;51.486;7.144;2023-05-10T00:48:14;15.00;99.90
31733;DHT22;18312;51.486;7.144;2023-05-10T00:50:40;15.10;99.90
31733;DHT22;18312;51.486;7.144;2023-05-10T00:53:07;15.10;99.90
31733;DHT22;18312;51.486;7.144;2023-05-10T00:55:36;15.10;99.90
31733;DHT22;18312;51.486;7.144;2023-05-10T00:58:02;15.10;99.90
31733;DHT22;18312;51.486;7.144;2023-05-10T01:00:29;15.20;99.90
31733;DHT22;18312;51.486;7.144;2023-05-10T01:02:56;15.20;99.90
31733;DHT22;18312;51.486;7.144;2023-05-10T01:05:23;15.10;99.90
31733;DHT22;18312;51.486;7.144;2023-05-10T01:07:49;15.10;99.90
31733;DHT22;18312;51.486;7.144;2023-05-10T01:10:16;15.10;99.90
31733;DHT22;18312;51.486;7.144;2023-05-10T01:12:45;15.20;99.90
31733;DHT22;18312;51.486;7.144;2023-05-10T01:15:12;15.20;99.90
31733;DHT22;18312;51.486;7.144;2023-05-10T01:17:40;15.20;99.90
31733;DHT22;18312;51.486;7.144;2023-05-10T01:20:09;15.20;99.90
31733;DHT22;18312;51.486;7.144;2023-05-10T01:22:41;15.20;99.90
31733;DHT22;18312;51.486;7.144;2023-05-10T01:25:11;15.10;99.90
31733;DHT22;18312;51.486;7.144;2023-05-10T01:28:09;15.10;99.90
31733;DHT22;18312;51.486;7.144;2023-05-10T01:30:43;15.10;99.90
31733;DHT22;18312;51.486;7.144;2023-05-10T01:33:18;15.10;99.90
31733;DHT22;18312;51.486;7.144;2023-05-10T01:35:47;14.90;99.90
31733;DHT22;18312;51.486;7.144;2023-05-10T01:38:19;15.00;99.90
31733;DHT22;18312;51.486;7.144;2023-05-10T01:40:48;14.90;99.90
31733;DHT22;18312;51.486;7.144;2023-05-10T01:43:19;14.80;99.90
31733;DHT22;18312;51.486;7.144;2023-05-10T01:45:50;14.80;99.90
31733;DHT22;18312;51.486;7.144;2023-05-10T01:48:19;14.80;99.90
31733;DHT22;18312;51.486;7.144;2023-05-10T01:50:47;14.70;99.90
31733;DHT22;18312;51.486;7.144;2023-05-10T01:53:16;14.60;99.90
31733;DHT22;18312;51.486;7.144;2023-05-10T01:55:45;14.60;99.90
31733;DHT22;18312;51.486;7.144;2023-05-10T01:58:13;14.60;99.90
31733;DHT22;18312;51.486;7.144;2023-05-10T02:00:40;14.50;99.90
31733;DHT22;18312;51.486;7.144;2023-05-10T02:03:08;14.50;99.90
31733;DHT22;18312;51.486;7.144;2023-05-10T02:05:38;14.40;99.90
31733;DHT22;18312;51.486;7.144;2023-05-10T02:08:05;14.40;99.90
31733;DHT22;18312;51.486;7.144;2023-05-10T02:10:33;14.40;99.90
31733;DHT22;18312;51.486;7.144;2023-05-10T02:13:00;14.40;99.90
31733;DHT22;18312;51.486;7.144;2023-05-10T02:15:28;14.40;99.90
31733;DHT22;18312;51.486;7.144;2023-05-10T02:17:55;14.40;99.90
31733;DHT22;18312;51.486;7.144;2023-05-10T02:20:22;14.30;99.90
31733;DHT22;18312;51.486;7.144;2023-05-10T02:22:51;14.30;99.90
31733;DHT22;18312;51.486;7.144;2023-05-10T02:25:19;14.30;99.90
31733;DHT22;18312;51.486;7.144;2023-05-10T02:27:46;14.30;99.90
31733;DHT22;18312;51.486;7.144;2023-05-10T02:30:13;14.30;99.90
31733;DHT22;18312;51.486;7.144;2023-05-10T02:32:40;14.30;99.90
31733;DHT22;18312;51.486;7.144;2023-05-10T02:35:07;14.30;99.90
31733;DHT22;18312;51.486;7.144;2023-05-10T02:37:34;14.40;99.90
31733;DHT22;18312;51.486;7.144;2023-05-10T02:40:03;14.30;99.90
31733;DHT22;18312;51.486;7.144;2023-05-10T02:42:33;14.30;99.90
31733;DHT22;18312;51.486;7.144;2023-05-10T02:45:02;14.30;99.90
31733;DHT22;18312;51.486;7.144;2023-05-10T02:47:29;14.30;99.90
31733;DHT22;18312;51.486;7.144;2023-05-10T02:49:56;14.30;99.90
31733;DHT22;18312;51.486;7.144;2023-05-10T02:52:25;14.30;99.90
31733;DHT22;18312;51.486;7.144;2023-05-10T02:54:52;14.30;99.90
31733;DHT22;18312;51.486;7.144;2023-05-10T02:57:22;14.30;99.90
31733;DHT22;18312;51.486;7.144;2023-05-10T02:59:51;14.30;99.90
31733;DHT22;18312;51.486;7.144;2023-05-10T03:02:18;14.30;99.90
31733;DHT22;18312;51.486;7.144;2023-05-10T03:04:44;14.20;99.90
31733;DHT22;18312;51.486;7.144;2023-05-10T03:07:12;14.30;99.90
31733;DHT22;18312;51.486;7.144;2023-05-10T03:09:39;14.30;99.90
31733;DHT22;18312;51.486;7.144;2023-05-10T03:12:07;14.30;99.90
31733;DHT22;18312;51.486;7.144;2023-05-10T03:14:42;14.30;99.90
31733;DHT22;18312;51.486;7.144;2023-05-10T03:17:10;14.30;99.90
31733;DHT22;18312;51.486;7.144;2023-05-10T03:19:40;14.30;99.90
31733;DHT22;18312;51.486;7.144;2023-05-10T03:22:10;14.30;99.90
31733;DHT22;18312;51.486;7.144;2023-05-10T03:24:37;14.30;99.90
31733;DHT22;18312;51.486;7.144;2023-05-10T03:27:05;14.30;99.90
31733;DHT22;18312;51.486;7.144;2023-05-10T03:29:32;14.30;99.90
31733;DHT22;18312;51.486;7.144;2023-05-10T03:32:00;14.30;99.90
31733;DHT22;18312;51.486;7.144;2023-05-10T03:34:27;14.30;99.90
31733;DHT22;18312;51.486;7.144;2023-05-10T03:36:56;14.30;99.90
31733;DHT22;18312;51.486;7.144;2023-05-10T03:39:22;14.40;99.90
31733;DHT22;18312;51.486;7.144;2023-05-10T03:41:50;14.40;99.90
31733;DHT22;18312;51.486;7.144;2023-05-10T03:44:16;14.40;99.90
31733;DHT22;18312;51.486;7.144;2023-05-10T03:46:43;14.40;99.90
31733;DHT22;18312;51.486;7.144;2023-05-10T03:49:11;14.40;99.90
31733;DHT22;18312;51.486;7.144;2023-05-10T03:51:38;14.40;99.90
31733;DHT22;18312;51.486;7.144;2023-05-10T03:54:05;14.40;99.90
31733;DHT22;18312;51.486;7.144;2023-05-10T03:56:32;14.40;99.90
31733;DHT22;18312;51.486;7.144;2023-05-10T03:58:58;14.40;99.90
31733;DHT22;18312;51.486;7.144;2023-05-10T04:01:25;14.40;99.90
31733;DHT22;18312;51.486;7.144;2023-05-10T04:03:51;14.50;99.90
31733;DHT22;18312;51.486;7.144;2023-05-10T04:06:19;14.50;99.90
31733;DHT22;18312;51.486;7.144;2023-05-10T04:08:46;14.50;99.90
31733;DHT22;18312;51.486;7.144;2023-05-10T04:11:12;14.60;99.90
31733;DHT22;18312;51.486;7.144;2023-05-10T04:13:39;14.60;99.90
31733;DHT22;18312;51.486;7.144;2023-05-10T04:16:06;14.60;99.90
31733;DHT22;18312;51.486;7.144;2023-05-10T04:18:32;14.60;99.90
31733;DHT22;18312;51.486;7.144;2023-05-10T04:20:59;14.60;99.90
31733;DHT22;18312;51.486;7.144;2023-05-10T04:23:27;14.60;99.90
31733;DHT22;18312;51.486;7.144;2023-05-10T04:25:58;14.70;99.90
31733;DHT22;18312;51.486;7.144;2023-05-10T04:28:25;14.60;99.90
31733;DHT22;18312;51.486;7.144;2023-05-10T04:30:52;14.70;99.90
31733;DHT22;18312;51.486;7.144;2023-05-10T04:33:19;14.70;99.90
31733;DHT22;18312;51.486;7.144;2023-05-10T04:35:45;14.80;99.90
31733;DHT22;18312;51.486;7.144;2023-05-10T04:38:12;14.80;99.90
31733;DHT22;18312;51.486;7.144;2023-05-10T04:40:40;14.80;99.90
31733;DHT22;18312;51.486;7.144;2023-05-10T04:43:06;14.80;99.90
31733;DHT22;18312;51.486;7.144;2023-05-10T04:45:33;14.80;99.90
31733;DHT22;18312;51.486;7.144;2023-05-10T04:47:59;14.90;99.90
31733;DHT22;18312;51.486;7.144;2023-05-10T04:50:26;14.90;99.90
31733;DHT22;18312;51.486;7.144;2023-05-10T04:52:53;14.90;99.90
31733;DHT22;18312;51.486;7.144;2023-05-10T04:55:19;14.90;99.90
31733;DHT22;18312;51.486;7.144;2023-05-10T04:57:47;14.90;99.90
31733;DHT22;18312;51.486;7.144;2023-05-10T05:00:14;14.90;99.90
31733;DHT22;18312;51.486;7.144;2023-05-10T05:02:42;14.90;99.90
31733;DHT22;18312;51.486;7.144;2023-05-10T05:05:08;15.00;99.90
31733;DHT22;18312;51.486;7.144;2023-05-10T05:07:35;15.00;99.90
31733;DHT22;18312;51.486;7.144;2023-05-10T05:10:02;15.00;99.90
31733;DHT22;18312;51.486;7.144;2023-05-10T05:12:29;15.10;99.90
31733;DHT22;18312;51.486;7.144;2023-05-10T05:14:57;15.10;99.90
31733;DHT22;18312;51.486;7.144;2023-05-10T05:17:24;15.10;99.90
31733;DHT22;18312;51.486;7.144;2023-05-10T05:19:50;15.10;99.90
31733;DHT22;18312;51.486;7.144;2023-05-10T05:22:17;15.10;99.90
31733;DHT22;18312;51.486;7.144;2023-05-10T05:24:44;15.10;99.90
31733;DHT22;18312;51.486;7.144;2023-05-10T05:27:11;15.10;99.90
31733;DHT22;18312;51.486;7.144;2023-05-10T05:29:38;15.10;99.90
31733;DHT22;18312;51.486;7.144;2023-05-10T05:32:06;15.20;99.90
31733;DHT22;18312;51.486;7.144;2023-05-10T05:34:33;15.30;99.90
31733;DHT22;18312;51.486;7.144;2023-05-10T05:37:00;15.30;99.90
31733;DHT22;18312;51.486;7.144;2023-05-10T05:39:26;15.30;99.90
31733;DHT22;18312;51.486;7.144;2023-05-10T05:41:53;15.40;99.90
31733;DHT22;18312;51.486;7.144;2023-05-10T05:44:19;15.40;99.90
31733;DHT22;18312;51.486;7.144;2023-05-10T05:46:46;15.40;99.90
31733;DHT22;18312;51.486;7.144;2023-05-10T05:49:14;15.50;99.90
31733;DHT22;18312;51.486;7.144;2023-05-10T05:51:40;15.50;99.90
31733;DHT22;18312;51.486;7.144;2023-05-10T05:54:07;15.50;99.90
31733;DHT22;18312;51.486;7.144;2023-05-10T05:56:34;15.50;99.90
31733;DHT22;18312;51.486;7.144;2023-05-10T05:59:00;15.50;99.90
31733;DHT22;18312;51.486;7.144;2023-05-10T06:01:27;15.60;99.90
31733;DHT22;18312;51.486;7.144;2023-05-10T06:03:53;15.50;99.90
31733;DHT22;18312;51.486;7.144;2023-05-10T06:06:21;15.50;99.90
31733;DHT22;18312;51.486;7.144;2023-05-10T06:08:48;15.50;99.90
31733;DHT22;18312;51.486;7.144;2023-05-10T06:11:14;15.50;99.90
31733;DHT22;18312;51.486;7.144;2023-05-10T06:13:41;15.60;99.90
31733;DHT22;18312;51.486;7.144;2023-05-10T06:16:08;15.70;99.90
31733;DHT22;18312;51.486;7.144;2023-05-10T06:18:34;15.70;99.90
31733;DHT22;18312;51.486;7.144;2023-05-10T06:21:01;15.80;99.90
31733;DHT22;18312;51.486;7.144;2023-05-10T06:23:29;15.80;99.90
31733;DHT22;18312;51.486;7.144;2023-05-10T06:25:55;15.80;99.90
31733;DHT22;18312;51.486;7.144;2023-05-10T06:28:22;15.90;99.90
31733;DHT22;18312;51.486;7.144;2023-05-10T06:30:48;16.00;99.90
31733;DHT22;18312;51.486;7.144;2023-05-10T06:33:15;16.00;99.90
31733;DHT22;18312;51.486;7.144;2023-05-10T06:35:42;16.10;99.90
31733;DHT22;18312;51.486;7.144;2023-05-10T06:38:08;16.20;99.90
31733;DHT22;18312;51.486;7.144;2023-05-10T06:40:37;16.10;99.90
31733;DHT22;18312;51.486;7.144;2023-05-10T06:43:07;16.10;99.90
31733;DHT22;18312;51.486;7.144;2023-05-10T06:45:33;16.10;99.90
31733;DHT22;18312;51.486;7.144;2023-05-10T06:48:00;16.30;99.90
31733;DHT22;18312;51.486;7.144;2023-05-10T06:50:26;16.60;99.90
31733;DHT22;18312;51.486;7.144;2023-05-10T06:52:53;16.70;99.90
31733;DHT22;18312;51.486;7.144;2023-05-10T06:55:20;16.80;99.90
31733;DHT22;18312;51.486;7.144;2023-05-10T06:57:48;17.10;99.90
31733;DHT22;18312;51.486;7.144;2023-05-10T07:00:16;16.70;99.90
31733;DHT22;18312;51.486;7.144;2023-05-10T07:02:42;16.70;99.90
31733;DHT22;18312;51.486;7.144;2023-05-10T07:05:09;16.70;99.90
31733;DHT22;18312;51.486;7.144;2023-05-10T07:07:36;16.80;99.90
31733;DHT22;18312;51.486;7.144;2023-05-10T07:10:03;16.70;99.90
31733;DHT22;18312;51.486;7.144;2023-05-10T07:12:30;16.80;99.90
31733;DHT22;18312;51.486;7.144;2023-05-10T07:14:58;16.80;99.90
31733;DHT22;18312;51.486;7.144;2023-05-10T07:17:25;16.80;99.90
31733;DHT22;18312;51.486;7.144;2023-05-10T07:19:51;16.90;99.90
31733;DHT22;18312;51.486;7.144;2023-05-10T07:22:18;16.90;99.90
31733;DHT22;18312;51.486;7.144;2023-05-10T07:24:45;17.20;99.90
31733;DHT22;18312;51.486;7.144;2023-05-10T07:27:12;16.90;99.90
31733;DHT22;18312;51.486;7.144;2023-05-10T07:29:39;16.90;99.90
31733;DHT22;18312;51.486;7.144;2023-05-10T07:32:07;17.10;99.90
31733;DHT22;18312;51.486;7.144;2023-05-10T07:34:33;17.20;99.90
31733;DHT22;18312;51.486;7.144;2023-05-10T07:37:00;17.30;99.90
31733;DHT22;18312;51.486;7.144;2023-05-10T07:39:26;17.20;99.90
31733;DHT22;18312;51.486;7.144;2023-05-10T07:41:53;17.20;99.90
31733;DHT22;18312;51.486;7.144;2023-05-10T07:44:20;17.30;99.90
31733;DHT22;18312;51.486;7.144;2023-05-10T07:46:46;17.40;99.90
31733;DHT22;18312;51.486;7.144;2023-05-10T07:49:15;17.40;99.90
31733;DHT22;18312;51.486;7.144;2023-05-10T07:51:42;17.60;99.90
31733;DHT22;18312;51.486;7.144;2023-05-10T07:54:09;17.70;99.90
31733;DHT22;18312;51.486;7.144;2023-05-10T07:56:35;17.40;99.90
31733;DHT22;18312;51.486;7.144;2023-05-10T07:59:02;17.20;99.90
31733;DHT22;18312;51.486;7.144;2023-05-10T08:01:29;16.90;99.90
31733;DHT22;18312;51.486;7.144;2023-05-10T08:03:56;17.00;99.90
31733;DHT22;18312;51.486;7.144;2023-05-10T08:06:24;16.70;99.90
31733;DHT22;18312;51.486;7.144;2023-05-10T08:08:52;16.80;99.90
31733;DHT22;18312;51.486;7.144;2023-05-10T08:11:19;16.80;99.90
31733;DHT22;18312;51.486;7.144;2023-05-10T08:13:46;16.70;99.90
31733;DHT22;18312;51.486;7.144;2023-05-10T08:16:13;16.70;99.90
31733;DHT22;18312;51.486;7.144;2023-05-10T08:18:40;16.60;99.90
31733;DHT22;18312;51.486;7.144;2023-05-10T08:21:06;16.70;99.90
31733;DHT22;18312;51.486;7.144;2023-05-10T08:23:34;16.50;99.90
31733;DHT22;18312;51.486;7.144;2023-05-10T08:26:01;16.60;99.90
31733;DHT22;18312;51.486;7.144;2023-05-10T08:28:27;16.60;99.90
31733;DHT22;18312;51.486;7.144;2023-05-10T08:30:54;16.70;99.90
31733;DHT22;18312;51.486;7.144;2023-05-10T08:33:20;16.80;99.90
31733;DHT22;18312;51.486;7.144;2023-05-10T08:35:47;16.60;99.90
31733;DHT22;18312;51.486;7.144;2023-05-10T08:38:13;16.50;99.90
31733;DHT22;18312;51.486;7.144;2023-05-10T08:40:42;16.40;99.90
31733;DHT22;18312;51.486;7.144;2023-05-10T08:43:09;16.60;99.90
31733;DHT22;18312;51.486;7.144;2023-05-10T08:45:37;16.70;99.90
31733;DHT22;18312;51.486;7.144;2023-05-10T08:48:05;16.60;99.90
31733;DHT22;18312;51.486;7.144;2023-05-10T08:50:32;16.70;99.90
31733;DHT22;18312;51.486;7.144;2023-05-10T08:53:00;16.40;99.90
31733;DHT22;18312;51.486;7.144;2023-05-10T08:55:27;16.50;99.90
31733;DHT22;18312;51.486;7.144;2023-05-10T08:57:55;16.30;99.90
31733;DHT22;18312;51.486;7.144;2023-05-10T09:00:22;16.40;99.90
31733;DHT22;18312;51.486;7.144;2023-05-10T09:02:49;16.30;99.90
31733;DHT22;18312;51.486;7.144;2023-05-10T09:05:16;16.20;99.90
31733;DHT22;18312;51.486;7.144;2023-05-10T09:07:42;16.30;99.90
31733;DHT22;18312;51.486;7.144;2023-05-10T09:10:09;16.40;99.90
31733;DHT22;18312;51.486;7.144;2023-05-10T09:12:37;16.40;99.90
31733;DHT22;18312;51.486;7.144;2023-05-10T09:15:05;16.70;99.90
31733;DHT22;18312;51.486;7.144;2023-05-10T09:17:33;16.70;99.90
31733;DHT22;18312;51.486;7.144;2023-05-10T09:20:00;16.40;99.90
31733;DHT22;18312;51.486;7.144;2023-05-10T09:22:26;16.50;99.90
31733;DHT22;18312;51.486;7.144;2023-05-10T09:25:03;16.50;99.90
31733;DHT22;18312;51.486;7.144;2023-05-10T09:27:29;16.30;99.90
31733;DHT22;18312;51.486;7.144;2023-05-10T09:29:56;16.20;99.90
31733;DHT22;18312;51.486;7.144;2023-05-10T09:32:26;16.00;99.90
31733;DHT22;18312;51.486;7.144;2023-05-10T09:35:05;15.90;99.90
31733;DHT22;18312;51.486;7.144;2023-05-10T09:37:32;16.40;99.90
31733;DHT22;18312;51.486;7.144;2023-05-10T09:39:58;16.40;99.90
31733;DHT22;18312;51.486;7.144;2023-05-10T09:42:25;16.40;99.90
31733;DHT22;18312;51.486;7.144;2023-05-10T09:44:52;16.10;99.90
31733;DHT22;18312;51.486;7.144;2023-05-10T09:47:18;16.20;99.90
31733;DHT22;18312;51.486;7.144;2023-05-10T09:49:50;16.70;99.90
31733;DHT22;18312;51.486;7.144;2023-05-10T09:52:16;17.50;99.90
31733;DHT22;18312;51.486;7.144;2023-05-10T09:54:45;17.70;99.90
31733;DHT22;18312;51.486;7.144;2023-05-10T09:57:18;18.10;99.90
31733;DHT22;18312;51.486;7.144;2023-05-10T09:59:45;18.10;99.90
31733;DHT22;18312;51.486;7.144;2023-05-10T10:02:11;18.00;99.90
31733;DHT22;18312;51.486;7.144;2023-05-10T10:04:38;17.60;99.90
31733;DHT22;18312;51.486;7.144;2023-05-10T10:07:08;17.50;99.90
31733;DHT22;18312;51.486;7.144;2023-05-10T10:09:35;17.20;99.90
31733;DHT22;18312;51.486;7.144;2023-05-10T10:12:02;16.90;99.90
31733;DHT22;18312;51.486;7.144;2023-05-10T10:14:28;16.60;99.90
31733;DHT22;18312;51.486;7.144;2023-05-10T10:16:55;16.60;99.90
31733;DHT22;18312;51.486;7.144;2023-05-10T10:19:22;16.50;99.90
31733;DHT22;18312;51.486;7.144;2023-05-10T10:21:49;16.60;99.90
31733;DHT22;18312;51.486;7.144;2023-05-10T10:24:17;16.80;99.90
31733;DHT22;18312;51.486;7.144;2023-05-10T10:26:44;17.10;99.90
31733;DHT22;18312;51.486;7.144;2023-05-10T10:29:16;16.90;99.90
31733;DHT22;18312;51.486;7.144;2023-05-10T10:31:46;17.00;99.90
31733;DHT22;18312;51.486;7.144;2023-05-10T10:34:17;16.80;99.90
31733;DHT22;18312;51.486;7.144;2023-05-10T10:36:48;17.00;99.90
31733;DHT22;18312;51.486;7.144;2023-05-10T10:39:15;17.00;99.90
31733;DHT22;18312;51.486;7.144;2023-05-10T10:41:50;16.80;99.90
31733;DHT22;18312;51.486;7.144;2023-05-10T10:47:03;16.70;99.90
31733;DHT22;18312;51.486;7.144;2023-05-10T10:49:31;16.80;99.90
31733;DHT22;18312;51.486;7.144;2023-05-10T10:54:40;17.10;99.90
31733;DHT22;18312;51.486;7.144;2023-05-10T10:57:11;17.20;99.90
31733;DHT22;18312;51.486;7.144;2023-05-10T10:59:41;17.10;99.90
31733;DHT22;18312;51.486;7.144;2023-05-10T11:02:08;17.00;99.90
31733;DHT22;18312;51.486;7.144;2023-05-10T11:04:41;17.30;99.90
31733;DHT22;18312;51.486;7.144;2023-05-10T11:07:18;17.60;99.90
31733;DHT22;18312;51.486;7.144;2023-05-10T11:09:45;17.50;99.90
31733;DHT22;18312;51.486;7.144;2023-05-10T11:12:14;16.90;99.90
31733;DHT22;18312;51.486;7.144;2023-05-10T11:14:41;16.60;99.90
31733;DHT22;18312;51.486;7.144;2023-05-10T11:20:07;17.00;99.90
31733;DHT22;18312;51.486;7.144;2023-05-10T11:22:48;16.90;99.90
31733;DHT22;18312;51.486;7.144;2023-05-10T11:25:15;17.20;99.90
31733;DHT22;18312;51.486;7.144;2023-05-10T11:27:43;17.50;99.90
31733;DHT22;18312;51.486;7.144;2023-05-10T11:30:11;17.70;99.90
31733;DHT22;18312;51.486;7.144;2023-05-10T11:32:38;17.70;99.90
31733;DHT22;18312;51.486;7.144;2023-05-10T11:35:07;17.60;99.90
31733;DHT22;18312;51.486;7.144;2023-05-10T11:37:34;17.20;99.90
31733;DHT22;18312;51.486;7.144;2023-05-10T11:40:01;17.60;99.90
31733;DHT22;18312;51.486;7.144;2023-05-10T11:42:28;17.70;99.90
31733;DHT22;18312;51.486;7.144;2023-05-10T11:44:56;17.70;99.90
31733;DHT22;18312;51.486;7.144;2023-05-10T11:47:23;17.50;99.90
31733;DHT22;18312;51.486;7.144;2023-05-10T11:49:50;17.40;99.90
31733;DHT22;18312;51.486;7.144;2023-05-10T11:52:18;17.60;99.90
31733;DHT22;18312;51.486;7.144;2023-05-10T11:54:45;17.40;99.90
31733;DHT22;18312;51.486;7.144;2023-05-10T11:57:12;17.60;99.90
31733;DHT22;18312;51.486;7.144;2023-05-10T11:59:38;17.60;99.90
31733;DHT22;18312;51.486;7.144;2023-05-10T12:02:07;17.70;99.90
31733;DHT22;18312;51.486;7.144;2023-05-10T12:04:33;17.50;99.90
31733;DHT22;18312;51.486;7.144;2023-05-10T12:07:00;17.60;99.90
31733;DHT22;18312;51.486;7.144;2023-05-10T12:09:27;17.50;99.90
31733;DHT22;18312;51.486;7.144;2023-05-10T12:11:55;17.50;99.90
31733;DHT22;18312;51.486;7.144;2023-05-10T12:14:22;17.70;99.90
31733;DHT22;18312;51.486;7.144;2023-05-10T12:16:49;17.50;99.90
31733;DHT22;18312;51.486;7.144;2023-05-10T12:19:19;17.60;99.90
31733;DHT22;18312;51.486;7.144;2023-05-10T12:21:46;17.60;99.90
31733;DHT22;18312;51.486;7.144;2023-05-10T12:24:13;17.60;99.90
31733;DHT22;18312;51.486;7.144;2023-05-10T12:26:41;17.60;99.90
31733;DHT22;18312;51.486;7.144;2023-05-10T12:29:11;17.90;99.90
31733;DHT22;18312;51.486;7.144;2023-05-10T12:31:48;18.20;99.90
31733;DHT22;18312;51.486;7.144;2023-05-10T12:34:23;18.60;99.90
31733;DHT22;18312;51.486;7.144;2023-05-10T12:36:50;18.60;99.90
31733;DHT22;18312;51.486;7.144;2023-05-10T12:39:16;18.50;99.90
31733;DHT22;18312;51.486;7.144;2023-05-10T12:41:43;18.70;99.90
31733;DHT22;18312;51.486;7.144;2023-05-10T12:44:09;18.50;99.90
31733;DHT22;18312;51.486;7.144;2023-05-10T12:46:36;18.50;99.90
31733;DHT22;18312;51.486;7.144;2023-05-10T12:49:03;18.70;99.90
31733;DHT22;18312;51.486;7.144;2023-05-10T12:51:31;19.10;99.90
31733;DHT22;18312;51.486;7.144;2023-05-10T12:53:57;18.80;99.90
31733;DHT22;18312;51.486;7.144;2023-05-10T12:56:24;18.70;99.90
31733;DHT22;18312;51.486;7.144;2023-05-10T12:58:51;18.60;99.90
31733;DHT22;18312;51.486;7.144;2023-05-10T13:01:17;18.70;99.90
31733;DHT22;18312;51.486;7.144;2023-05-10T13:03:44;18.80;99.90
31733;DHT22;18312;51.486;7.144;2023-05-10T13:06:10;18.90;99.90
31733;DHT22;18312;51.486;7.144;2023-05-10T13:08:40;19.10;99.90
31733;DHT22;18312;51.486;7.144;2023-05-10T13:11:06;19.20;99.90
31733;DHT22;18312;51.486;7.144;2023-05-10T13:13:33;19.30;99.90
31733;DHT22;18312;51.486;7.144;2023-05-10T13:16:00;19.40;99.90
31733;DHT22;18312;51.486;7.144;2023-05-10T13:18:26;19.60;99.90
31733;DHT22;18312;51.486;7.144;2023-05-10T13:20:53;20.10;99.90
31733;DHT22;18312;51.486;7.144;2023-05-10T13:23:20;19.90;99.90
31733;DHT22;18312;51.486;7.144;2023-05-10T13:25:48;19.70;99.90
31733;DHT22;18312;51.486;7.144;2023-05-10T13:28:14;19.80;99.90
31733;DHT22;18312;51.486;7.144;2023-05-10T13:30:41;19.90;99.90
31733;DHT22;18312;51.486;7.144;2023-05-10T13:33:08;20.10;99.90
31733;DHT22;18312;51.486;7.144;2023-05-10T13:35:34;20.30;99.90
31733;DHT22;18312;51.486;7.144;2023-05-10T13:38:01;20.40;99.90
31733;DHT22;18312;51.486;7.144;2023-05-10T13:40:28;20.40;99.50
31733;DHT22;18312;51.486;7.144;2023-05-10T13:42:56;20.10;97.50
31733;DHT22;18312;51.486;7.144;2023-05-10T13:45:22;20.30;99.20
31733;DHT22;18312;51.486;7.144;2023-05-10T13:47:49;20.00;99.30
31733;DHT22;18312;51.486;7.144;2023-05-10T13:50:16;20.00;98.10
31733;DHT22;18312;51.486;7.144;2023-05-10T13:52:43;20.00;98.30
31733;DHT22;18312;51.486;7.144;2023-05-10T13:55:09;20.10;98.20
31733;DHT22;18312;51.486;7.144;2023-05-10T13:57:37;20.20;99.40
31733;DHT22;18312;51.486;7.144;2023-05-10T14:00:06;20.20;96.80
31733;DHT22;18312;51.486;7.144;2023-05-10T14:02:33;19.90;97.60
31733;DHT22;18312;51.486;7.144;2023-05-10T14:04:59;19.70;96.60
31733;DHT22;18312;51.486;7.144;2023-05-10T14:07:26;20.10;97.10
31733;DHT22;18312;51.486;7.144;2023-05-10T14:09:53;20.50;96.50
31733;DHT22;18312;51.486;7.144;2023-05-10T14:12:19;20.90;96.50
31733;DHT22;18312;51.486;7.144;2023-05-10T14:14:46;21.00;94.90
31733;DHT22;18312;51.486;7.144;2023-05-10T14:17:14;20.90;95.20
31733;DHT22;18312;51.486;7.144;2023-05-10T14:19:40;21.20;95.90
31733;DHT22;18312;51.486;7.144;2023-05-10T14:22:07;20.40;97.00
31733;DHT22;18312;51.486;7.144;2023-05-10T14:24:33;20.70;97.20
31733;DHT22;18312;51.486;7.144;2023-05-10T14:27:00;20.60;96.50
31733;DHT22;18312;51.486;7.144;2023-05-10T14:29:26;20.70;96.50
31733;DHT22;18312;51.486;7.144;2023-05-10T14:31:53;20.60;95.50
31733;DHT22;18312;51.486;7.144;2023-05-10T14:34:21;20.60;97.00
31733;DHT22;18312;51.486;7.144;2023-05-10T14:36:47;20.60;96.10
31733;DHT22;18312;51.486;7.144;2023-05-10T14:39:15;20.30;95.20
31733;DHT22;18312;51.486;7.144;2023-05-10T14:41:41;21.00;95.00
31733;DHT22;18312;51.486;7.144;2023-05-10T14:44:09;21.40;94.40
31733;DHT22;18312;51.486;7.144;2023-05-10T14:46:36;21.30;94.00
31733;DHT22;18312;51.486;7.144;2023-05-10T14:49:03;21.30;93.80
31733;DHT22;18312;51.486;7.144;2023-05-10T14:51:31;20.90;93.50
31733;DHT22;18312;51.486;7.144;2023-05-10T14:53:58;20.80;94.00
31733;DHT22;18312;51.486;7.144;2023-05-10T14:56:24;20.70;94.30
31733;DHT22;18312;51.486;7.144;2023-05-10T14:58:53;20.60;94.10
31733;DHT22;18312;51.486;7.144;2023-05-10T15:01:19;21.00;93.80
31733;DHT22;18312;51.486;7.144;2023-05-10T15:03:46;21.00;93.20
31733;DHT22;18312;51.486;7.144;2023-05-10T15:06:13;20.60;93.50
31733;DHT22;18312;51.486;7.144;2023-05-10T15:08:41;20.70;93.90
31733;DHT22;18312;51.486;7.144;2023-05-10T15:11:08;21.30;92.80
31733;DHT22;18312;51.486;7.144;2023-05-10T15:13:35;21.80;91.60
31733;DHT22;18312;51.486;7.144;2023-05-10T15:16:02;22.50;91.50
31733;DHT22;18312;51.486;7.144;2023-05-10T15:18:28;24.10;90.60
31733;DHT22;18312;51.486;7.144;2023-05-10T15:20:55;24.80;88.90
31733;DHT22;18312;51.486;7.144;2023-05-10T15:23:21;24.70;84.70
31733;DHT22;18312;51.486;7.144;2023-05-10T15:25:49;24.70;80.60
31733;DHT22;18312;51.486;7.144;2023-05-10T15:28:20;24.70;82.50
31733;DHT22;18312;51.486;7.144;2023-05-10T15:30:47;23.40;83.40
31733;DHT22;18312;51.486;7.144;2023-05-10T15:33:14;23.90;83.10
31733;DHT22;18312;51.486;7.144;2023-05-10T15:35:40;23.90;84.00
31733;DHT22;18312;51.486;7.144;2023-05-10T15:38:07;23.50;82.50
31733;DHT22;18312;51.486;7.144;2023-05-10T15:40:33;23.70;82.00